sensor_id;sensor_type;location;lat;lon;timestamp;P1;durP1;ratioP1;P2;durP2;ratioP2
8978;SDS011;4524;51.364;5.448;2024-01-07T00:00:18;19.17;;;7.57;;
8978;SDS011;4524;51.364;5.448;2024-01-07T00:02:47;10.02;;;5.32;;
8978;SDS011;4524;51.364;5.448;2024-01-07T00:05:19;15.45;;;8.35;;
8978;SDS011;4524;51.364;5.448;2024-01-07T00:07:47;16.27;;;7.82;;
8978;SDS011;4524;51.364;5.448;2024-01-07T00:10:18;20.33;;;8.52;;
8978;SDS011;4524;51.364;5.448;2024-01-07T00:12:51;16.33;;;7.97;;
8978;SDS011;4524;51.364;5.448;2024-01-07T00:15:20;17.25;;;7.28;;
8978;SDS011;4524;51.364;5.448;2024-01-07T00:17:49;16.23;;;9.63;;
8978;SDS011;4524;51.364;5.448;2024-01-07T00:20:18;15.77;;;6.53;;
8978;SDS011;4524;51.364;5.448;2024-01-07T00:22:48;18.05;;;8.68;;
8978;SDS011;4524;51.364;5.448;2024-01-07T00:25:16;14.75;;;6.95;;
8978;SDS011;4524;51.364;5.448;2024-01-07T00:27:46;13.68;;;7.55;;
8978;SDS011;4524;51.364;5.448;2024-01-07T00:30:16;19.90;;;9.77;;
8978;SDS011;4524;51.364;5.448;2024-01-07T00:32:46;14.63;;;6.97;;
8978;SDS011;4524;51.364;5.448;2024-01-07T00:35:18;16.73;;;7.70;;
8978;SDS011;4524;51.364;5.448;2024-01-07T00:37:47;18.70;;;8.18;;
8978;SDS011;4524;51.364;5.448;2024-01-07T00:40:19;23.38;;;11.18;;
8978;SDS011;4524;51.364;5.448;2024-01-07T00:42:48;14.93;;;7.22;;
8978;SDS011;4524;51.364;5.448;2024-01-07T00:45:20;21.25;;;11.07;;
8978;SDS011;4524;51.364;5.448;2024-01-07T00:47:49;24.40;;;10.95;;
8978;SDS011;4524;51.364;5.448;2024-01-07T00:50:18;19.48;;;8.77;;
8978;SDS011;4524;51.364;5.448;2024-01-07T00:52:47;25.00;;;11.13;;
8978;SDS011;4524;51.364;5.448;2024-01-07T00:55:16;15.57;;;8.27;;
8978;SDS011;4524;51.364;5.448;2024-01-07T00:57:45;12.65;;;6.00;;
8978;SDS011;4524;51.364;5.448;2024-01-07T01:00:14;13.43;;;7.03;;
8978;SDS011;4524;51.364;5.448;2024-01-07T01:02:48;14.23;;;5.95;;
8978;SDS011;4524;51.364;5.448;2024-01-07T01:05:17;19.58;;;9.98;;
8978;SDS011;4524;51.364;5.448;2024-01-07T01:07:46;23.13;;;10.02;;
8978;SDS011;4524;51.364;5.448;2024-01-07T01:10:15;23.05;;;10.50;;
8978;SDS011;4524;51.364;5.448;2024-01-07T01:12:44;22.13;;;10.55;;
8978;SDS011;4524;51.364;5.448;2024-01-07T01:15:12;15.40;;;8.20;;
8978;SDS011;4524;51.364;5.448;2024-01-07T01:17:46;28.15;;;13.30;;
8978;SDS011;4524;51.364;5.448;2024-01-07T01:20:15;24.58;;;10.55;;
8978;SDS011;4524;51.364;5.448;2024-01-07T01:22:44;24.45;;;11.50;;
8978;SDS011;4524;51.364;5.448;2024-01-07T01:25:15;15.63;;;7.88;;
8978;SDS011;4524;51.364;5.448;2024-01-07T01:27:43;13.48;;;7.57;;
8978;SDS011;4524;51.364;5.448;2024-01-07T01:30:13;24.73;;;11.65;;
8978;SDS011;4524;51.364;5.448;2024-01-07T01:32:41;19.67;;;9.50;;
8978;SDS011;4524;51.364;5.448;2024-01-07T01:35:15;17.77;;;9.57;;
8978;SDS011;4524;51.364;5.448;2024-01-07T01:37:46;18.65;;;8.82;;
8978;SDS011;4524;51.364;5.448;2024-01-07T01:40:16;24.17;;;11.38;;
8978;SDS011;4524;51.364;5.448;2024-01-07T01:42:46;11.52;;;6.50;;
8978;SDS011;4524;51.364;5.448;2024-01-07T01:45:16;16.45;;;9.73;;
8978;SDS011;4524;51.364;5.448;2024-01-07T01:47:47;8.05;;;5.13;;
8978;SDS011;4524;51.364;5.448;2024-01-07T01:50:18;20.88;;;9.20;;
8978;SDS011;4524;51.364;5.448;2024-01-07T01:52:47;15.95;;;7.78;;
8978;SDS011;4524;51.364;5.448;2024-01-07T01:55:17;23.35;;;13.27;;
8978;SDS011;4524;51.364;5.448;2024-01-07T01:57:47;15.63;;;8.40;;
8978;SDS011;4524;51.364;5.448;2024-01-07T02:00:17;19.02;;;10.68;;
8978;SDS011;4524;51.364;5.448;2024-01-07T02:05:19;19.77;;;9.25;;
8978;SDS011;4524;51.364;5.448;2024-01-07T02:07:48;21.35;;;9.30;;
8978;SDS011;4524;51.364;5.448;2024-01-07T02:10:19;18.88;;;10.60;;
8978;SDS011;4524;51.364;5.448;2024-01-07T02:13:00;18.95;;;9.02;;
8978;SDS011;4524;51.364;5.448;2024-01-07T02:15:30;18.85;;;9.05;;
8978;SDS011;4524;51.364;5.448;2024-01-07T02:17:58;20.73;;;10.63;;
8978;SDS011;4524;51.364;5.448;2024-01-07T02:20:36;15.98;;;7.57;;
8978;SDS011;4524;51.364;5.448;2024-01-07T02:23:05;19.70;;;10.55;;
8978;SDS011;4524;51.364;5.448;2024-01-07T02:25:37;12.50;;;7.32;;
8978;SDS011;4524;51.364;5.448;2024-01-07T02:28:07;14.90;;;7.72;;
8978;SDS011;4524;51.364;5.448;2024-01-07T02:30:35;11.93;;;7.03;;
8978;SDS011;4524;51.364;5.448;2024-01-07T02:33:07;27.40;;;12.90;;
8978;SDS011;4524;51.364;5.448;2024-01-07T02:35:37;18.20;;;9.20;;
8978;SDS011;4524;51.364;5.448;2024-01-07T02:38:08;23.73;;;13.02;;
8978;SDS011;4524;51.364;5.448;2024-01-07T02:40:38;27.52;;;14.40;;
8978;SDS011;4524;51.364;5.448;2024-01-07T02:43:07;24.10;;;10.45;;
8978;SDS011;4524;51.364;5.448;2024-01-07T02:45:35;22.88;;;10.90;;
8978;SDS011;4524;51.364;5.448;2024-01-07T02:48:09;16.10;;;7.43;;
8978;SDS011;4524;51.364;5.448;2024-01-07T02:50:38;21.70;;;9.68;;
8978;SDS011;4524;51.364;5.448;2024-01-07T02:53:08;19.10;;;9.52;;
8978;SDS011;4524;51.364;5.448;2024-01-07T02:55:43;26.92;;;11.35;;
8978;SDS011;4524;51.364;5.448;2024-01-07T02:58:11;21.67;;;10.45;;
8978;SDS011;4524;51.364;5.448;2024-01-07T03:00:40;26.20;;;12.88;;
8978;SDS011;4524;51.364;5.448;2024-01-07T03:03:09;24.48;;;12.80;;
8978;SDS011;4524;51.364;5.448;2024-01-07T03:05:37;29.33;;;13.02;;
8978;SDS011;4524;51.364;5.448;2024-01-07T03:08:06;24.13;;;11.20;;
8978;SDS011;4524;51.364;5.448;2024-01-07T03:10:36;25.15;;;11.77;;
8978;SDS011;4524;51.364;5.448;2024-01-07T03:13:06;21.45;;;8.02;;
8978;SDS011;4524;51.364;5.448;2024-01-07T03:15:40;28.55;;;12.75;;
8978;SDS011;4524;51.364;5.448;2024-01-07T03:18:09;25.67;;;11.77;;
8978;SDS011;4524;51.364;5.448;2024-01-07T03:20:37;24.88;;;12.25;;
8978;SDS011;4524;51.364;5.448;2024-01-07T03:23:06;31.00;;;13.13;;
8978;SDS011;4524;51.364;5.448;2024-01-07T03:28:06;18.95;;;9.38;;
8978;SDS011;4524;51.364;5.448;2024-01-07T03:30:35;26.40;;;11.77;;
8978;SDS011;4524;51.364;5.448;2024-01-07T03:35:33;22.80;;;10.40;;
8978;SDS011;4524;51.364;5.448;2024-01-07T03:38:01;23.13;;;10.85;;
8978;SDS011;4524;51.364;5.448;2024-01-07T03:40:32;32.25;;;13.50;;
8978;SDS011;4524;51.364;5.448;2024-01-07T03:43:01;26.67;;;11.20;;
8978;SDS011;4524;51.364;5.448;2024-01-07T03:45:31;32.17;;;13.57;;
8978;SDS011;4524;51.364;5.448;2024-01-07T03:48:02;21.63;;;9.90;;
8978;SDS011;4524;51.364;5.448;2024-01-07T03:50:32;24.83;;;11.38;;
8978;SDS011;4524;51.364;5.448;2024-01-07T03:53:01;22.50;;;11.05;;
8978;SDS011;4524;51.364;5.448;2024-01-07T03:55:30;25.13;;;12.50;;
8978;SDS011;4524;51.364;5.448;2024-01-07T03:58:00;20.38;;;9.98;;
8978;SDS011;4524;51.364;5.448;2024-01-07T04:02:59;24.63;;;10.82;;
8978;SDS011;4524;51.364;5.448;2024-01-07T04:05:29;24.45;;;11.30;;
8978;SDS011;4524;51.364;5.448;2024-01-07T04:08:01;19.92;;;9.68;;
8978;SDS011;4524;51.364;5.448;2024-01-07T04:10:30;12.75;;;5.55;;
8978;SDS011;4524;51.364;5.448;2024-01-07T04:13:00;13.98;;;6.88;;
8978;SDS011;4524;51.364;5.448;2024-01-07T04:15:31;19.50;;;10.15;;
8978;SDS011;4524;51.364;5.448;2024-01-07T04:18:02;15.35;;;7.28;;
8978;SDS011;4524;51.364;5.448;2024-01-07T04:20:32;17.05;;;8.73;;
8978;SDS011;4524;51.364;5.448;2024-01-07T04:25:31;21.42;;;9.48;;
8978;SDS011;4524;51.364;5.448;2024-01-07T04:28:00;20.80;;;10.32;;
8978;SDS011;4524;51.364;5.448;2024-01-07T04:30:29;11.70;;;5.25;;
8978;SDS011;4524;51.364;5.448;2024-01-07T04:32:58;16.35;;;8.32;;
8978;SDS011;4524;51.364;5.448;2024-01-07T04:35:29;26.42;;;9.90;;
8978;SDS011;4524;51.364;5.448;2024-01-07T04:37:57;20.95;;;10.55;;
8978;SDS011;4524;51.364;5.448;2024-01-07T04:40:26;12.48;;;5.72;;
8978;SDS011;4524;51.364;5.448;2024-01-07T04:42:57;16.17;;;8.40;;
8978;SDS011;4524;51.364;5.448;2024-01-07T04:45:25;20.15;;;9.93;;
8978;SDS011;4524;51.364;5.448;2024-01-07T04:47:54;17.85;;;9.93;;
8978;SDS011;4524;51.364;5.448;2024-01-07T04:50:36;15.05;;;8.40;;
8978;SDS011;4524;51.364;5.448;2024-01-07T04:53:05;19.40;;;8.32;;
8978;SDS011;4524;51.364;5.448;2024-01-07T04:55:34;18.13;;;8.38;;
8978;SDS011;4524;51.364;5.448;2024-01-07T04:58:07;18.25;;;7.95;;
8978;SDS011;4524;51.364;5.448;2024-01-07T05:00:35;13.68;;;5.07;;
8978;SDS011;4524;51.364;5.448;2024-01-07T05:03:10;16.08;;;7.75;;
8978;SDS011;4524;51.364;5.448;2024-01-07T05:05:41;13.90;;;7.25;;
8978;SDS011;4524;51.364;5.448;2024-01-07T05:08:10;10.60;;;6.25;;
8978;SDS011;4524;51.364;5.448;2024-01-07T05:10:39;18.38;;;8.35;;
8978;SDS011;4524;51.364;5.448;2024-01-07T05:13:09;19.50;;;9.98;;
8978;SDS011;4524;51.364;5.448;2024-01-07T05:15:38;19.63;;;8.50;;
8978;SDS011;4524;51.364;5.448;2024-01-07T05:18:07;16.02;;;9.02;;
8978;SDS011;4524;51.364;5.448;2024-01-07T05:20:42;30.00;;;9.48;;
8978;SDS011;4524;51.364;5.448;2024-01-07T05:23:11;14.57;;;7.88;;
8978;SDS011;4524;51.364;5.448;2024-01-07T05:25:49;13.65;;;6.20;;
8978;SDS011;4524;51.364;5.448;2024-01-07T05:28:17;19.27;;;9.32;;
8978;SDS011;4524;51.364;5.448;2024-01-07T05:30:48;12.27;;;6.28;;
8978;SDS011;4524;51.364;5.448;2024-01-07T05:33:17;8.60;;;4.80;;
8978;SDS011;4524;51.364;5.448;2024-01-07T05:35:47;12.70;;;7.05;;
8978;SDS011;4524;51.364;5.448;2024-01-07T05:38:18;10.80;;;6.07;;
8978;SDS011;4524;51.364;5.448;2024-01-07T05:40:48;15.68;;;5.20;;
8978;SDS011;4524;51.364;5.448;2024-01-07T05:43:19;7.82;;;5.15;;
8978;SDS011;4524;51.364;5.448;2024-01-07T05:45:49;9.25;;;5.60;;
8978;SDS011;4524;51.364;5.448;2024-01-07T05:48:20;13.20;;;6.68;;
8978;SDS011;4524;51.364;5.448;2024-01-07T05:50:52;11.60;;;5.20;;
8978;SDS011;4524;51.364;5.448;2024-01-07T05:53:22;12.27;;;6.82;;
8978;SDS011;4524;51.364;5.448;2024-01-07T05:55:51;11.10;;;6.28;;
8978;SDS011;4524;51.364;5.448;2024-01-07T06:00:50;9.55;;;5.13;;
8978;SDS011;4524;51.364;5.448;2024-01-07T06:05:52;12.90;;;6.82;;
8978;SDS011;4524;51.364;5.448;2024-01-07T06:08:23;10.82;;;7.10;;
8978;SDS011;4524;51.364;5.448;2024-01-07T06:10:55;13.25;;;8.20;;
8978;SDS011;4524;51.364;5.448;2024-01-07T06:13:23;12.05;;;7.05;;
8978;SDS011;4524;51.364;5.448;2024-01-07T06:15:51;14.23;;;7.90;;
8978;SDS011;4524;51.364;5.448;2024-01-07T06:18:25;15.20;;;7.25;;
8978;SDS011;4524;51.364;5.448;2024-01-07T06:20:57;11.40;;;6.05;;
8978;SDS011;4524;51.364;5.448;2024-01-07T06:23:28;8.55;;;5.63;;
8978;SDS011;4524;51.364;5.448;2024-01-07T06:25:57;8.25;;;5.35;;
8978;SDS011;4524;51.364;5.448;2024-01-07T06:28:29;9.85;;;6.85;;
8978;SDS011;4524;51.364;5.448;2024-01-07T06:30:58;15.15;;;7.97;;
8978;SDS011;4524;51.364;5.448;2024-01-07T06:33:44;14.55;;;7.65;;
8978;SDS011;4524;51.364;5.448;2024-01-07T06:36:16;14.40;;;8.00;;
8978;SDS011;4524;51.364;5.448;2024-01-07T06:38:46;15.35;;;9.27;;
8978;SDS011;4524;51.364;5.448;2024-01-07T06:41:15;11.15;;;7.05;;
8978;SDS011;4524;51.364;5.448;2024-01-07T06:43:43;11.45;;;6.38;;
8978;SDS011;4524;51.364;5.448;2024-01-07T06:46:11;8.93;;;6.40;;
8978;SDS011;4524;51.364;5.448;2024-01-07T06:48:40;13.48;;;6.32;;
8978;SDS011;4524;51.364;5.448;2024-01-07T06:51:15;14.88;;;6.82;;
8978;SDS011;4524;51.364;5.448;2024-01-07T06:53:46;13.10;;;6.65;;
8978;SDS011;4524;51.364;5.448;2024-01-07T06:56:17;7.82;;;4.50;;
8978;SDS011;4524;51.364;5.448;2024-01-07T06:58:45;17.25;;;6.10;;
8978;SDS011;4524;51.364;5.448;2024-01-07T07:01:15;14.98;;;6.78;;
8978;SDS011;4524;51.364;5.448;2024-01-07T07:03:50;13.20;;;6.95;;
8978;SDS011;4524;51.364;5.448;2024-01-07T07:06:20;11.38;;;5.53;;
8978;SDS011;4524;51.364;5.448;2024-01-07T07:08:48;9.48;;;5.00;;
8978;SDS011;4524;51.364;5.448;2024-01-07T07:11:21;10.32;;;6.85;;
8978;SDS011;4524;51.364;5.448;2024-01-07T07:13:52;10.48;;;6.45;;
8978;SDS011;4524;51.364;5.448;2024-01-07T07:16:21;9.75;;;6.72;;
8978;SDS011;4524;51.364;5.448;2024-01-07T07:18:50;11.13;;;7.30;;
8978;SDS011;4524;51.364;5.448;2024-01-07T07:21:20;11.40;;;6.70;;
8978;SDS011;4524;51.364;5.448;2024-01-07T07:23:49;14.15;;;7.68;;
8978;SDS011;4524;51.364;5.448;2024-01-07T07:26:19;9.80;;;5.72;;
8978;SDS011;4524;51.364;5.448;2024-01-07T07:28:47;12.75;;;8.05;;
8978;SDS011;4524;51.364;5.448;2024-01-07T07:31:16;13.63;;;7.63;;
8978;SDS011;4524;51.364;5.448;2024-01-07T07:33:45;16.60;;;8.00;;
8978;SDS011;4524;51.364;5.448;2024-01-07T07:36:16;11.45;;;6.82;;
8978;SDS011;4524;51.364;5.448;2024-01-07T07:38:46;16.98;;;7.78;;
8978;SDS011;4524;51.364;5.448;2024-01-07T07:41:15;14.20;;;7.70;;
8978;SDS011;4524;51.364;5.448;2024-01-07T07:43:44;7.97;;;4.60;;
8978;SDS011;4524;51.364;5.448;2024-01-07T07:48:42;9.93;;;5.75;;
8978;SDS011;4524;51.364;5.448;2024-01-07T07:51:11;12.23;;;7.00;;
8978;SDS011;4524;51.364;5.448;2024-01-07T07:53:41;13.07;;;8.13;;
8978;SDS011;4524;51.364;5.448;2024-01-07T07:56:11;11.07;;;5.28;;
8978;SDS011;4524;51.364;5.448;2024-01-07T07:58:40;12.52;;;5.28;;
8978;SDS011;4524;51.364;5.448;2024-01-07T08:01:09;10.50;;;5.80;;
8978;SDS011;4524;51.364;5.448;2024-01-07T08:03:37;9.25;;;5.18;;
8978;SDS011;4524;51.364;5.448;2024-01-07T08:06:06;10.23;;;5.78;;
8978;SDS011;4524;51.364;5.448;2024-01-07T08:08:37;11.85;;;6.05;;
8978;SDS011;4524;51.364;5.448;2024-01-07T08:11:06;11.65;;;6.50;;
8978;SDS011;4524;51.364;5.448;2024-01-07T08:13:37;19.15;;;9.30;;
8978;SDS011;4524;51.364;5.448;2024-01-07T08:16:08;5.82;;;4.45;;
8978;SDS011;4524;51.364;5.448;2024-01-07T08:18:37;10.98;;;5.68;;
8978;SDS011;4524;51.364;5.448;2024-01-07T08:23:37;13.40;;;7.30;;
8978;SDS011;4524;51.364;5.448;2024-01-07T08:28:34;7.47;;;4.57;;
8978;SDS011;4524;51.364;5.448;2024-01-07T08:31:07;13.32;;;5.65;;
8978;SDS011;4524;51.364;5.448;2024-01-07T08:33:36;7.28;;;3.80;;
8978;SDS011;4524;51.364;5.448;2024-01-07T08:36:06;8.88;;;4.75;;
8978;SDS011;4524;51.364;5.448;2024-01-07T08:38:35;10.00;;;4.03;;
8978;SDS011;4524;51.364;5.448;2024-01-07T08:41:05;11.93;;;7.47;;
8978;SDS011;4524;51.364;5.448;2024-01-07T08:46:02;13.48;;;5.18;;
8978;SDS011;4524;51.364;5.448;2024-01-07T08:48:34;13.48;;;5.30;;
8978;SDS011;4524;51.364;5.448;2024-01-07T08:51:04;9.93;;;5.95;;
8978;SDS011;4524;51.364;5.448;2024-01-07T08:53:32;18.55;;;7.03;;
8978;SDS011;4524;51.364;5.448;2024-01-07T08:56:01;9.27;;;5.82;;
8978;SDS011;4524;51.364;5.448;2024-01-07T08:58:29;8.23;;;4.00;;
8978;SDS011;4524;51.364;5.448;2024-01-07T09:00:57;9.57;;;4.93;;
8978;SDS011;4524;51.364;5.448;2024-01-07T09:03:26;7.53;;;4.80;;
8978;SDS011;4524;51.364;5.448;2024-01-07T09:05:57;13.07;;;6.28;;
8978;SDS011;4524;51.364;5.448;2024-01-07T09:08:26;9.40;;;4.93;;
8978;SDS011;4524;51.364;5.448;2024-01-07T09:10:56;6.45;;;4.00;;
8978;SDS011;4524;51.364;5.448;2024-01-07T09:13:26;13.10;;;6.38;;
8978;SDS011;4524;51.364;5.448;2024-01-07T09:15:55;7.60;;;4.70;;
8978;SDS011;4524;51.364;5.448;2024-01-07T09:18:25;11.15;;;6.40;;
8978;SDS011;4524;51.364;5.448;2024-01-07T09:20:56;11.55;;;6.88;;
8978;SDS011;4524;51.364;5.448;2024-01-07T09:23:25;8.18;;;4.45;;
8978;SDS011;4524;51.364;5.448;2024-01-07T09:25:53;5.18;;;3.22;;
8978;SDS011;4524;51.364;5.448;2024-01-07T09:28:22;11.32;;;4.80;;
8978;SDS011;4524;51.364;5.448;2024-01-07T09:30:51;6.38;;;4.35;;
8978;SDS011;4524;51.364;5.448;2024-01-07T09:33:19;10.45;;;5.72;;
8978;SDS011;4524;51.364;5.448;2024-01-07T09:35:50;14.30;;;7.32;;
8978;SDS011;4524;51.364;5.448;2024-01-07T09:38:34;10.00;;;5.63;;
8978;SDS011;4524;51.364;5.448;2024-01-07T09:41:05;4.88;;;2.95;;
8978;SDS011;4524;51.364;5.448;2024-01-07T09:43:35;14.25;;;7.70;;
8978;SDS011;4524;51.364;5.448;2024-01-07T09:46:04;12.20;;;6.20;;
8978;SDS011;4524;51.364;5.448;2024-01-07T09:48:35;10.35;;;5.22;;
8978;SDS011;4524;51.364;5.448;2024-01-07T09:51:04;11.50;;;5.00;;
8978;SDS011;4524;51.364;5.448;2024-01-07T09:53:42;6.10;;;4.88;;
8978;SDS011;4524;51.364;5.448;2024-01-07T09:56:20;9.52;;;4.75;;
8978;SDS011;4524;51.364;5.448;2024-01-07T09:58:53;12.52;;;5.20;;
8978;SDS011;4524;51.364;5.448;2024-01-07T10:01:22;8.02;;;4.22;;
8978;SDS011;4524;51.364;5.448;2024-01-07T10:03:56;11.35;;;7.40;;
8978;SDS011;4524;51.364;5.448;2024-01-07T10:06:25;10.20;;;5.63;;
8978;SDS011;4524;51.364;5.448;2024-01-07T10:08:55;7.25;;;3.72;;
8978;SDS011;4524;51.364;5.448;2024-01-07T10:11:22;9.88;;;5.55;;
8978;SDS011;4524;51.364;5.448;2024-01-07T10:13:58;8.05;;;3.90;;
8978;SDS011;4524;51.364;5.448;2024-01-07T10:16:29;4.78;;;4.03;;
8978;SDS011;4524;51.364;5.448;2024-01-07T10:18:58;8.65;;;5.28;;
8978;SDS011;4524;51.364;5.448;2024-01-07T10:21:28;7.82;;;4.88;;
8978;SDS011;4524;51.364;5.448;2024-01-07T10:24:08;9.73;;;6.50;;
8978;SDS011;4524;51.364;5.448;2024-01-07T10:26:38;11.15;;;6.00;;
8978;SDS011;4524;51.364;5.448;2024-01-07T10:29:07;8.80;;;5.13;;
8978;SDS011;4524;51.364;5.448;2024-01-07T10:31:37;6.45;;;3.78;;
8978;SDS011;4524;51.364;5.448;2024-01-07T10:34:07;10.10;;;5.22;;
8978;SDS011;4524;51.364;5.448;2024-01-07T10:36:37;8.15;;;4.80;;
8978;SDS011;4524;51.364;5.448;2024-01-07T10:39:13;8.25;;;4.65;;
8978;SDS011;4524;51.364;5.448;2024-01-07T10:41:42;6.78;;;4.75;;
8978;SDS011;4524;51.364;5.448;2024-01-07T10:44:18;7.95;;;5.93;;
8978;SDS011;4524;51.364;5.448;2024-01-07T10:46:47;8.88;;;5.15;;
8978;SDS011;4524;51.364;5.448;2024-01-07T10:49:16;8.35;;;4.57;;
8978;SDS011;4524;51.364;5.448;2024-01-07T10:51:50;9.82;;;5.70;;
8978;SDS011;4524;51.364;5.448;2024-01-07T10:54:29;3.80;;;3.05;;
8978;SDS011;4524;51.364;5.448;2024-01-07T10:57:02;7.20;;;4.90;;
8978;SDS011;4524;51.364;5.448;2024-01-07T10:59:37;10.07;;;4.18;;
8978;SDS011;4524;51.364;5.448;2024-01-07T11:02:07;6.55;;;3.75;;
8978;SDS011;4524;51.364;5.448;2024-01-07T11:04:40;12.35;;;4.93;;
8978;SDS011;4524;51.364;5.448;2024-01-07T11:07:19;7.38;;;3.67;;
8978;SDS011;4524;51.364;5.448;2024-01-07T11:10:04;8.55;;;5.18;;
8978;SDS011;4524;51.364;5.448;2024-01-07T11:12:39;9.20;;;5.90;;
8978;SDS011;4524;51.364;5.448;2024-01-07T11:15:09;11.52;;;6.00;;
8978;SDS011;4524;51.364;5.448;2024-01-07T11:17:41;7.53;;;4.32;;
8978;SDS011;4524;51.364;5.448;2024-01-07T11:20:13;7.97;;;4.75;;
8978;SDS011;4524;51.364;5.448;2024-01-07T11:22:47;6.40;;;4.50;;
8978;SDS011;4524;51.364;5.448;2024-01-07T11:25:31;8.90;;;4.45;;
8978;SDS011;4524;51.364;5.448;2024-01-07T11:28:02;8.15;;;4.70;;
8978;SDS011;4524;51.364;5.448;2024-01-07T11:30:31;7.47;;;4.47;;
8978;SDS011;4524;51.364;5.448;2024-01-07T11:33:09;9.73;;;5.28;;
8978;SDS011;4524;51.364;5.448;2024-01-07T11:36:01;5.85;;;2.78;;
8978;SDS011;4524;51.364;5.448;2024-01-07T11:38:33;5.13;;;3.58;;
8978;SDS011;4524;51.364;5.448;2024-01-07T11:41:05;7.07;;;4.93;;
8978;SDS011;4524;51.364;5.448;2024-01-07T11:43:34;7.72;;;3.75;;
8978;SDS011;4524;51.364;5.448;2024-01-07T11:46:02;5.43;;;3.45;;
8978;SDS011;4524;51.364;5.448;2024-01-07T11:48:31;4.38;;;2.53;;
8978;SDS011;4524;51.364;5.448;2024-01-07T11:51:00;7.60;;;4.60;;
8978;SDS011;4524;51.364;5.448;2024-01-07T11:53:29;7.70;;;5.18;;
8978;SDS011;4524;51.364;5.448;2024-01-07T11:55:57;6.38;;;4.43;;
8978;SDS011;4524;51.364;5.448;2024-01-07T11:58:34;8.05;;;4.32;;
8978;SDS011;4524;51.364;5.448;2024-01-07T12:01:03;8.02;;;4.05;;
8978;SDS011;4524;51.364;5.448;2024-01-07T12:03:32;6.30;;;4.38;;
8978;SDS011;4524;51.364;5.448;2024-01-07T12:06:01;9.07;;;4.72;;
8978;SDS011;4524;51.364;5.448;2024-01-07T12:08:31;8.05;;;4.93;;
8978;SDS011;4524;51.364;5.448;2024-01-07T12:10:59;7.30;;;4.43;;
8978;SDS011;4524;51.364;5.448;2024-01-07T12:13:29;5.75;;;4.20;;
8978;SDS011;4524;51.364;5.448;2024-01-07T12:15:59;9.38;;;4.68;;
8978;SDS011;4524;51.364;5.448;2024-01-07T12:18:28;10.57;;;5.63;;
8978;SDS011;4524;51.364;5.448;2024-01-07T12:20:59;11.35;;;6.75;;
8978;SDS011;4524;51.364;5.448;2024-01-07T12:23:28;6.45;;;4.20;;
8978;SDS011;4524;51.364;5.448;2024-01-07T12:26:06;12.75;;;5.53;;
8978;SDS011;4524;51.364;5.448;2024-01-07T12:28:51;10.98;;;6.55;;
8978;SDS011;4524;51.364;5.448;2024-01-07T12:31:22;6.50;;;4.03;;
8978;SDS011;4524;51.364;5.448;2024-01-07T12:33:51;4.82;;;3.67;;
8978;SDS011;4524;51.364;5.448;2024-01-07T12:36:21;6.85;;;4.15;;
8978;SDS011;4524;51.364;5.448;2024-01-07T12:38:50;10.70;;;4.22;;
8978;SDS011;4524;51.364;5.448;2024-01-07T12:41:20;6.80;;;4.28;;
8978;SDS011;4524;51.364;5.448;2024-01-07T12:43:49;6.57;;;3.17;;
8978;SDS011;4524;51.364;5.448;2024-01-07T12:46:18;7.30;;;3.25;;
8978;SDS011;4524;51.364;5.448;2024-01-07T12:48:48;7.53;;;4.85;;
8978;SDS011;4524;51.364;5.448;2024-01-07T12:51:17;6.65;;;4.53;;
8978;SDS011;4524;51.364;5.448;2024-01-07T12:53:49;5.93;;;3.83;;
8978;SDS011;4524;51.364;5.448;2024-01-07T12:56:18;4.88;;;2.90;;
8978;SDS011;4524;51.364;5.448;2024-01-07T12:58:46;6.32;;;4.28;;
8978;SDS011;4524;51.364;5.448;2024-01-07T13:01:15;4.18;;;2.05;;
8978;SDS011;4524;51.364;5.448;2024-01-07T13:03:45;13.82;;;3.58;;
8978;SDS011;4524;51.364;5.448;2024-01-07T13:06:17;8.40;;;4.53;;
8978;SDS011;4524;51.364;5.448;2024-01-07T13:08:47;6.63;;;3.97;;
8978;SDS011;4524;51.364;5.448;2024-01-07T13:11:17;5.88;;;2.83;;
8978;SDS011;4524;51.364;5.448;2024-01-07T13:13:46;5.10;;;2.55;;
8978;SDS011;4524;51.364;5.448;2024-01-07T13:16:15;6.30;;;3.80;;
8978;SDS011;4524;51.364;5.448;2024-01-07T13:18:45;4.60;;;3.00;;
8978;SDS011;4524;51.364;5.448;2024-01-07T13:21:14;2.67;;;1.83;;
8978;SDS011;4524;51.364;5.448;2024-01-07T13:23:43;7.43;;;4.57;;
8978;SDS011;4524;51.364;5.448;2024-01-07T13:26:11;5.40;;;3.85;;
8978;SDS011;4524;51.364;5.448;2024-01-07T13:28:39;3.53;;;2.67;;
8978;SDS011;4524;51.364;5.448;2024-01-07T13:31:07;4.28;;;2.60;;
8978;SDS011;4524;51.364;5.448;2024-01-07T13:33:38;7.10;;;4.18;;
8978;SDS011;4524;51.364;5.448;2024-01-07T13:36:07;8.35;;;3.67;;
8978;SDS011;4524;51.364;5.448;2024-01-07T13:38:36;4.65;;;3.20;;
8978;SDS011;4524;51.364;5.448;2024-01-07T13:41:06;6.53;;;3.53;;
8978;SDS011;4524;51.364;5.448;2024-01-07T13:46:03;6.05;;;4.05;;
8978;SDS011;4524;51.364;5.448;2024-01-07T13:48:31;5.57;;;3.25;;
8978;SDS011;4524;51.364;5.448;2024-01-07T13:51:00;5.57;;;3.53;;
8978;SDS011;4524;51.364;5.448;2024-01-07T13:53:29;4.97;;;3.50;;
8978;SDS011;4524;51.364;5.448;2024-01-07T13:55:57;3.22;;;2.25;;
8978;SDS011;4524;51.364;5.448;2024-01-07T13:58:26;2.08;;;1.15;;
8978;SDS011;4524;51.364;5.448;2024-01-07T14:05:50;7.25;;;2.70;;
8978;SDS011;4524;51.364;5.448;2024-01-07T14:08:18;4.80;;;3.03;;
8978;SDS011;4524;51.364;5.448;2024-01-07T14:10:46;4.18;;;2.85;;
8978;SDS011;4524;51.364;5.448;2024-01-07T14:13:15;5.53;;;2.78;;
8978;SDS011;4524;51.364;5.448;2024-01-07T14:15:45;3.90;;;2.20;;
8978;SDS011;4524;51.364;5.448;2024-01-07T14:18:13;3.45;;;2.15;;
8978;SDS011;4524;51.364;5.448;2024-01-07T14:20:43;3.38;;;2.03;;
8978;SDS011;4524;51.364;5.448;2024-01-07T14:23:11;6.75;;;2.25;;
8978;SDS011;4524;51.364;5.448;2024-01-07T14:25:39;2.78;;;1.88;;
8978;SDS011;4524;51.364;5.448;2024-01-07T14:28:08;2.53;;;1.35;;
8978;SDS011;4524;51.364;5.448;2024-01-07T14:30:36;5.30;;;1.45;;
8978;SDS011;4524;51.364;5.448;2024-01-07T14:33:06;3.38;;;1.88;;
8978;SDS011;4524;51.364;5.448;2024-01-07T14:35:34;4.70;;;2.33;;
8978;SDS011;4524;51.364;5.448;2024-01-07T14:38:02;3.22;;;2.15;;
8978;SDS011;4524;51.364;5.448;2024-01-07T14:40:32;3.33;;;1.98;;
8978;SDS011;4524;51.364;5.448;2024-01-07T14:43:00;4.93;;;2.13;;
8978;SDS011;4524;51.364;5.448;2024-01-07T14:45:28;4.68;;;1.77;;
8978;SDS011;4524;51.364;5.448;2024-01-07T14:47:56;3.40;;;1.85;;
8978;SDS011;4524;51.364;5.448;2024-01-07T14:50:25;3.58;;;1.50;;
8978;SDS011;4524;51.364;5.448;2024-01-07T14:53:04;18.77;;;1.40;;
8978;SDS011;4524;51.364;5.448;2024-01-07T14:55:32;2.10;;;1.30;;
8978;SDS011;4524;51.364;5.448;2024-01-07T14:58:00;2.72;;;1.83;;
8978;SDS011;4524;51.364;5.448;2024-01-07T15:00:29;2.28;;;1.52;;
8978;SDS011;4524;51.364;5.448;2024-01-07T15:02:57;3.17;;;1.90;;
8978;SDS011;4524;51.364;5.448;2024-01-07T15:05:26;4.20;;;1.60;;
8978;SDS011;4524;51.364;5.448;2024-01-07T15:07:54;5.57;;;2.00;;
8978;SDS011;4524;51.364;5.448;2024-01-07T15:10:22;4.72;;;2.00;;
8978;SDS011;4524;51.364;5.448;2024-01-07T15:12:50;2.55;;;1.70;;
8978;SDS011;4524;51.364;5.448;2024-01-07T15:15:27;2.10;;;1.25;;
8978;SDS011;4524;51.364;5.448;2024-01-07T15:17:56;4.25;;;2.25;;
8978;SDS011;4524;51.364;5.448;2024-01-07T15:20:26;4.68;;;1.50;;
8978;SDS011;4524;51.364;5.448;2024-01-07T15:22:54;2.40;;;1.20;;
8978;SDS011;4524;51.364;5.448;2024-01-07T15:25:22;2.65;;;1.90;;
8978;SDS011;4524;51.364;5.448;2024-01-07T15:27:50;3.47;;;1.45;;
8978;SDS011;4524;51.364;5.448;2024-01-07T15:30:19;3.53;;;1.83;;
8978;SDS011;4524;51.364;5.448;2024-01-07T15:32:47;5.75;;;3.00;;
8978;SDS011;4524;51.364;5.448;2024-01-07T15:35:15;3.47;;;1.95;;
8978;SDS011;4524;51.364;5.448;2024-01-07T15:37:44;2.60;;;1.73;;
8978;SDS011;4524;51.364;5.448;2024-01-07T15:42:41;4.50;;;2.83;;
8978;SDS011;4524;51.364;5.448;2024-01-07T15:45:09;3.00;;;1.92;;
8978;SDS011;4524;51.364;5.448;2024-01-07T15:47:37;3.10;;;1.70;;
8978;SDS011;4524;51.364;5.448;2024-01-07T15:52:35;3.67;;;2.10;;
8978;SDS011;4524;51.364;5.448;2024-01-07T15:55:05;2.83;;;1.55;;
8978;SDS011;4524;51.364;5.448;2024-01-07T15:57:35;3.88;;;1.55;;
8978;SDS011;4524;51.364;5.448;2024-01-07T16:00:03;2.50;;;1.30;;
8978;SDS011;4524;51.364;5.448;2024-01-07T16:02:32;7.90;;;2.70;;